Portada
METAR-TAF:

METAR-TAF

Aeroports :

Bydgoszcz, Polònia

latitud: 53-05-48N, longitud: 017-58-40E, altitud: 72 m

Observació

L'informe es va fer fa 36 minuts, a les 10:30 UTC
Vent 7 kt del Nord, variant entre Nord-Oest i Est/Nord-Est
Temperatura 18°C
Humitat 34%
Pressió 1007 hPa
Visibilitat 10 km o més
sense núvols per sota de 1500 mi sense presència de cumulonimbus.

METAR: EPBY 031030Z 01007KT 320V070 CAVOK 18/02 Q1007

Hora: 13:06 (11:06 UTC)

Pronòstic

L'informe es va fer fa 5 hores i 36 minuts, a les 05:30 UTC
Pronòstic vàlid del 03 a les 06 UTC al 04 a les 06 UTC
Vent 10 kt del Nord-Est
Visibilitat 10 km o més
sense núvols per sota de 1500 mi sense presència de cumulonimbus.

TAF: EPBY 030530Z 0306/0406 05010KT CAVOK

Observacions i pronòstics meteorològics de més de 4000 aeroports (METAR i TAF).

Les estacions disponibles són els punts grocs i vermells al mapa.

Posi el ratolí al punt desitjat per veure el nom de l'estació.

Feu clic per veure les observacions i els pronòstics meteorològics.

Per canviar el mapa: feu clic els botons verds amb una creu de color negre per apropar; al botó verd amb un guió per allunyar la imatge; o en les fletxes verdes per a mapes adjacents.


METAR-TAF: